<?xml version="1.0" encoding="UTF-8" standalone="no" ?>
<gpx xmlns="http://www.topografix.com/GPX/1/1" xmlns:xsi="http://www.w3.org/2001/XMLSchema-instance" xsi:schemaLocation="http://www.topografix.com/GPX/1/1 http://www.topografix.com/GPX/1/1/gpx.xsd" version="1.1" creator="VisuGPX - https://www.visugpx.com">
  <metadata>
    <name>Rando LN</name>
  </metadata>
  <trk>
    <name><![CDATA[ST Martin d'Ardèche]]></name>
    <extensions>
      <line xmlns="http://www.topografix.com/GPX/gpx_style/0/2">
        <color>00ffee</color>
        <width>4</width>
      </line>
    </extensions>
    <trkseg>
      <trkpt lat="44.35097" lon="4.45325">
        <ele>255.791</ele>
        <time>2015-07-29T00:05:06Z</time>
      </trkpt>
      <trkpt lat="44.35074" lon="4.45315">
        <ele>255.429</ele>
        <time>2015-07-29T00:05:26Z</time>
      </trkpt>
      <trkpt lat="44.35045" lon="4.45277">
        <ele>257.081</ele>
        <time>2015-07-29T00:05:46Z</time>
      </trkpt>
      <trkpt lat="44.3498" lon="4.45214">
        <ele>256.816</ele>
        <time>2015-07-29T00:06:06Z</time>
      </trkpt>
      <trkpt lat="44.34913" lon="4.45171">
        <ele>261.169</ele>
        <time>2015-07-29T00:06:26Z</time>
      </trkpt>
      <trkpt lat="44.34884" lon="4.45182">
        <ele>261.444</ele>
        <time>2015-07-29T00:06:46Z</time>
      </trkpt>
      <trkpt lat="44.34832" lon="4.45234">
        <ele>262.274</ele>
        <time>2015-07-29T00:07:06Z</time>
      </trkpt>
      <trkpt lat="44.34794" lon="4.45223">
        <ele>261.756</ele>
        <time>2015-07-29T00:07:26Z</time>
      </trkpt>
      <trkpt lat="44.34764" lon="4.45201">
        <ele>258.221</ele>
        <time>2015-07-29T00:07:46Z</time>
      </trkpt>
      <trkpt lat="44.34735" lon="4.45156">
        <ele>251.208</ele>
        <time>2015-07-29T00:08:06Z</time>
      </trkpt>
      <trkpt lat="44.3472" lon="4.45111">
        <ele>246.353</ele>
        <time>2015-07-29T00:08:26Z</time>
      </trkpt>
      <trkpt lat="44.34719" lon="4.45057">
        <ele>241.877</ele>
        <time>2015-07-29T00:08:46Z</time>
      </trkpt>
      <trkpt lat="44.34731" lon="4.4504">
        <ele>242.094</ele>
        <time>2015-07-29T00:09:06Z</time>
      </trkpt>
      <trkpt lat="44.34815" lon="4.45008">
        <ele>242.562</ele>
        <time>2015-07-29T00:09:26Z</time>
      </trkpt>
      <trkpt lat="44.34824" lon="4.44984">
        <ele>242.774</ele>
        <time>2015-07-29T00:09:46Z</time>
      </trkpt>
      <trkpt lat="44.34825" lon="4.44951">
        <ele>241.059</ele>
        <time>2015-07-29T00:10:06Z</time>
      </trkpt>
      <trkpt lat="44.34807" lon="4.44849">
        <ele>229.562</ele>
        <time>2015-07-29T00:10:26Z</time>
      </trkpt>
      <trkpt lat="44.34788" lon="4.44764">
        <ele>223.287</ele>
        <time>2015-07-29T00:10:46Z</time>
      </trkpt>
      <trkpt lat="44.34841" lon="4.44749">
        <ele>223.699</ele>
        <time>2015-07-29T00:11:06Z</time>
      </trkpt>
      <trkpt lat="44.34877" lon="4.4475">
        <ele>223.607</ele>
        <time>2015-07-29T00:11:26Z</time>
      </trkpt>
      <trkpt lat="44.34879" lon="4.44687">
        <ele>223.627</ele>
        <time>2015-07-29T00:11:46Z</time>
      </trkpt>
      <trkpt lat="44.3487" lon="4.44645">
        <ele>223.808</ele>
        <time>2015-07-29T00:12:06Z</time>
      </trkpt>
      <trkpt lat="44.34869" lon="4.4459">
        <ele>225.455</ele>
        <time>2015-07-29T00:12:26Z</time>
      </trkpt>
      <trkpt lat="44.34861" lon="4.4459">
        <ele>225.039</ele>
        <time>2015-07-29T00:12:46Z</time>
      </trkpt>
      <trkpt lat="44.34851" lon="4.44596">
        <ele>224.086</ele>
        <time>2015-07-29T00:13:06Z</time>
      </trkpt>
      <trkpt lat="44.34844" lon="4.44596">
        <ele>223.254</ele>
        <time>2015-07-29T00:13:26Z</time>
      </trkpt>
      <trkpt lat="44.34835" lon="4.4456">
        <ele>223.086</ele>
        <time>2015-07-29T00:13:46Z</time>
      </trkpt>
      <trkpt lat="44.34817" lon="4.4454">
        <ele>222.971</ele>
        <time>2015-07-29T00:14:06Z</time>
      </trkpt>
      <trkpt lat="44.34802" lon="4.4456">
        <ele>219.934</ele>
        <time>2015-07-29T00:14:26Z</time>
      </trkpt>
      <trkpt lat="44.34785" lon="4.44548">
        <ele>220.229</ele>
        <time>2015-07-29T00:14:46Z</time>
      </trkpt>
      <trkpt lat="44.34765" lon="4.44545">
        <ele>222.033</ele>
        <time>2015-07-29T00:15:06Z</time>
      </trkpt>
      <trkpt lat="44.34748" lon="4.44539">
        <ele>224.723</ele>
        <time>2015-07-29T00:15:26Z</time>
      </trkpt>
      <trkpt lat="44.34732" lon="4.44541">
        <ele>227.615</ele>
        <time>2015-07-29T00:15:46Z</time>
      </trkpt>
      <trkpt lat="44.34716" lon="4.44522">
        <ele>232.508</ele>
        <time>2015-07-29T00:16:06Z</time>
      </trkpt>
      <trkpt lat="44.34662" lon="4.44525">
        <ele>238.799</ele>
        <time>2015-07-29T00:16:26Z</time>
      </trkpt>
      <trkpt lat="44.34647" lon="4.44508">
        <ele>241.813</ele>
        <time>2015-07-29T00:16:46Z</time>
      </trkpt>
      <trkpt lat="44.34632" lon="4.44468">
        <ele>249.22</ele>
        <time>2015-07-29T00:17:06Z</time>
      </trkpt>
      <trkpt lat="44.34618" lon="4.44467">
        <ele>253.178</ele>
        <time>2015-07-29T00:17:26Z</time>
      </trkpt>
      <trkpt lat="44.34592" lon="4.4444">
        <ele>259.85</ele>
        <time>2015-07-29T00:17:46Z</time>
      </trkpt>
      <trkpt lat="44.34548" lon="4.44414">
        <ele>264.855</ele>
        <time>2015-07-29T00:18:06Z</time>
      </trkpt>
      <trkpt lat="44.34469" lon="4.44421">
        <ele>275.588</ele>
        <time>2015-07-29T00:18:26Z</time>
      </trkpt>
      <trkpt lat="44.34443" lon="4.44385">
        <ele>278.093</ele>
        <time>2015-07-29T00:18:46Z</time>
      </trkpt>
      <trkpt lat="44.34417" lon="4.44379">
        <ele>282.575</ele>
        <time>2015-07-29T00:19:06Z</time>
      </trkpt>
      <trkpt lat="44.34392" lon="4.44339">
        <ele>285.628</ele>
        <time>2015-07-29T00:19:26Z</time>
      </trkpt>
      <trkpt lat="44.3438" lon="4.44334">
        <ele>287.02</ele>
        <time>2015-07-29T00:19:46Z</time>
      </trkpt>
      <trkpt lat="44.34356" lon="4.44397">
        <ele>292.908</ele>
        <time>2015-07-29T00:20:06Z</time>
      </trkpt>
      <trkpt lat="44.34352" lon="4.44458">
        <ele>298.573</ele>
        <time>2015-07-29T00:20:26Z</time>
      </trkpt>
      <trkpt lat="44.34353" lon="4.44479">
        <ele>300.457</ele>
        <time>2015-07-29T00:20:46Z</time>
      </trkpt>
      <trkpt lat="44.3434" lon="4.44506">
        <ele>303.054</ele>
        <time>2015-07-29T00:21:06Z</time>
      </trkpt>
      <trkpt lat="44.34305" lon="4.44502">
        <ele>307.852</ele>
        <time>2015-07-29T00:21:26Z</time>
      </trkpt>
      <trkpt lat="44.34296" lon="4.44493">
        <ele>310.774</ele>
        <time>2015-07-29T00:21:46Z</time>
      </trkpt>
      <trkpt lat="44.34286" lon="4.44438">
        <ele>314.459</ele>
        <time>2015-07-29T00:22:06Z</time>
      </trkpt>
      <trkpt lat="44.3426" lon="4.44402">
        <ele>318.532</ele>
        <time>2015-07-29T00:22:26Z</time>
      </trkpt>
      <trkpt lat="44.34246" lon="4.44401">
        <ele>321.947</ele>
        <time>2015-07-29T00:22:46Z</time>
      </trkpt>
      <trkpt lat="44.3423" lon="4.44453">
        <ele>327.725</ele>
        <time>2015-07-29T00:23:06Z</time>
      </trkpt>
      <trkpt lat="44.34219" lon="4.44467">
        <ele>328.326</ele>
        <time>2015-07-29T00:23:26Z</time>
      </trkpt>
      <trkpt lat="44.34144" lon="4.44443">
        <ele>336.408</ele>
        <time>2015-07-29T00:23:46Z</time>
      </trkpt>
      <trkpt lat="44.34136" lon="4.44433">
        <ele>338.308</ele>
        <time>2015-07-29T00:24:06Z</time>
      </trkpt>
      <trkpt lat="44.34108" lon="4.44417">
        <ele>344.228</ele>
        <time>2015-07-29T00:24:26Z</time>
      </trkpt>
      <trkpt lat="44.34082" lon="4.44451">
        <ele>346.062</ele>
        <time>2015-07-29T00:24:46Z</time>
      </trkpt>
      <trkpt lat="44.34072" lon="4.4445">
        <ele>348.639</ele>
        <time>2015-07-29T00:25:06Z</time>
      </trkpt>
      <trkpt lat="44.34053" lon="4.44425">
        <ele>354.297</ele>
        <time>2015-07-29T00:25:26Z</time>
      </trkpt>
      <trkpt lat="44.34039" lon="4.44432">
        <ele>356.469</ele>
        <time>2015-07-29T00:25:46Z</time>
      </trkpt>
      <trkpt lat="44.34004" lon="4.44432">
        <ele>361.094</ele>
        <time>2015-07-29T00:26:06Z</time>
      </trkpt>
      <trkpt lat="44.33993" lon="4.44422">
        <ele>363.147</ele>
        <time>2015-07-29T00:26:26Z</time>
      </trkpt>
      <trkpt lat="44.33947" lon="4.44431">
        <ele>370.052</ele>
        <time>2015-07-29T00:26:46Z</time>
      </trkpt>
      <trkpt lat="44.33928" lon="4.44414">
        <ele>373.412</ele>
        <time>2015-07-29T00:27:06Z</time>
      </trkpt>
      <trkpt lat="44.33906" lon="4.44412">
        <ele>376.532</ele>
        <time>2015-07-29T00:27:26Z</time>
      </trkpt>
      <trkpt lat="44.33888" lon="4.44389">
        <ele>378.105</ele>
        <time>2015-07-29T00:27:46Z</time>
      </trkpt>
      <trkpt lat="44.33871" lon="4.44381">
        <ele>380.208</ele>
        <time>2015-07-29T00:28:06Z</time>
      </trkpt>
      <trkpt lat="44.33859" lon="4.44365">
        <ele>380.467</ele>
        <time>2015-07-29T00:28:26Z</time>
      </trkpt>
      <trkpt lat="44.33849" lon="4.44362">
        <ele>380.521</ele>
        <time>2015-07-29T00:28:46Z</time>
      </trkpt>
      <trkpt lat="44.33836" lon="4.44353">
        <ele>380.418</ele>
        <time>2015-07-29T00:29:06Z</time>
      </trkpt>
      <trkpt lat="44.33821" lon="4.44347">
        <ele>380.066</ele>
        <time>2015-07-29T00:29:26Z</time>
      </trkpt>
      <trkpt lat="44.33772" lon="4.44468">
        <ele>387.288</ele>
        <time>2015-07-29T00:29:46Z</time>
      </trkpt>
      <trkpt lat="44.33743" lon="4.44501">
        <ele>388.073</ele>
        <time>2015-07-29T00:30:06Z</time>
      </trkpt>
      <trkpt lat="44.33715" lon="4.44588">
        <ele>388.386</ele>
        <time>2015-07-29T00:30:26Z</time>
      </trkpt>
      <trkpt lat="44.33676" lon="4.44639">
        <ele>390.351</ele>
        <time>2015-07-29T00:30:46Z</time>
      </trkpt>
      <trkpt lat="44.33638" lon="4.44722">
        <ele>394.042</ele>
        <time>2015-07-29T00:31:06Z</time>
      </trkpt>
      <trkpt lat="44.33514" lon="4.44924">
        <ele>389.022</ele>
        <time>2015-07-29T00:31:26Z</time>
      </trkpt>
      <trkpt lat="44.33474" lon="4.44935">
        <ele>388.114</ele>
        <time>2015-07-29T00:31:46Z</time>
      </trkpt>
      <trkpt lat="44.33418" lon="4.45046">
        <ele>389.008</ele>
        <time>2015-07-29T00:32:06Z</time>
      </trkpt>
      <trkpt lat="44.33415" lon="4.45093">
        <ele>391.12</ele>
        <time>2015-07-29T00:32:26Z</time>
      </trkpt>
      <trkpt lat="44.33391" lon="4.45217">
        <ele>394.974</ele>
        <time>2015-07-29T00:32:46Z</time>
      </trkpt>
      <trkpt lat="44.33381" lon="4.45296">
        <ele>395.791</ele>
        <time>2015-07-29T00:33:06Z</time>
      </trkpt>
      <trkpt lat="44.33353" lon="4.45362">
        <ele>395.089</ele>
        <time>2015-07-29T00:33:26Z</time>
      </trkpt>
      <trkpt lat="44.33328" lon="4.45447">
        <ele>390.961</ele>
        <time>2015-07-29T00:33:46Z</time>
      </trkpt>
      <trkpt lat="44.33242" lon="4.45549">
        <ele>393.486</ele>
        <time>2015-07-29T00:34:06Z</time>
      </trkpt>
      <trkpt lat="44.33217" lon="4.4557">
        <ele>393.779</ele>
        <time>2015-07-29T00:34:26Z</time>
      </trkpt>
      <trkpt lat="44.33212" lon="4.4559">
        <ele>393.214</ele>
        <time>2015-07-29T00:34:46Z</time>
      </trkpt>
      <trkpt lat="44.33167" lon="4.45656">
        <ele>393.882</ele>
        <time>2015-07-29T00:35:06Z</time>
      </trkpt>
      <trkpt lat="44.33054" lon="4.45775">
        <ele>394.243</ele>
        <time>2015-07-29T00:35:26Z</time>
      </trkpt>
      <trkpt lat="44.32989" lon="4.45822">
        <ele>396.017</ele>
        <time>2015-07-29T00:35:46Z</time>
      </trkpt>
      <trkpt lat="44.32945" lon="4.45834">
        <ele>397.008</ele>
        <time>2015-07-29T00:36:06Z</time>
      </trkpt>
      <trkpt lat="44.32863" lon="4.45887">
        <ele>401.914</ele>
        <time>2015-07-29T00:36:26Z</time>
      </trkpt>
      <trkpt lat="44.32822" lon="4.45952">
        <ele>403.498</ele>
        <time>2015-07-29T00:36:46Z</time>
      </trkpt>
      <trkpt lat="44.32796" lon="4.46038">
        <ele>403.035</ele>
        <time>2015-07-29T00:37:06Z</time>
      </trkpt>
      <trkpt lat="44.32779" lon="4.46165">
        <ele>401.173</ele>
        <time>2015-07-29T00:37:26Z</time>
      </trkpt>
      <trkpt lat="44.32768" lon="4.46411">
        <ele>400.895</ele>
        <time>2015-07-29T00:37:46Z</time>
      </trkpt>
      <trkpt lat="44.3277" lon="4.46477">
        <ele>399.14</ele>
        <time>2015-07-29T00:38:06Z</time>
      </trkpt>
      <trkpt lat="44.32827" lon="4.46687">
        <ele>390.443</ele>
        <time>2015-07-29T00:38:26Z</time>
      </trkpt>
      <trkpt lat="44.32831" lon="4.46764">
        <ele>388.448</ele>
        <time>2015-07-29T00:38:46Z</time>
      </trkpt>
      <trkpt lat="44.32813" lon="4.46834">
        <ele>387.326</ele>
        <time>2015-07-29T00:39:06Z</time>
      </trkpt>
      <trkpt lat="44.32819" lon="4.4692">
        <ele>388.547</ele>
        <time>2015-07-29T00:39:26Z</time>
      </trkpt>
      <trkpt lat="44.32816" lon="4.4707">
        <ele>391.711</ele>
        <time>2015-07-29T00:39:46Z</time>
      </trkpt>
      <trkpt lat="44.32794" lon="4.47172">
        <ele>389.008</ele>
        <time>2015-07-29T00:40:06Z</time>
      </trkpt>
      <trkpt lat="44.32803" lon="4.47285">
        <ele>392.178</ele>
        <time>2015-07-29T00:40:26Z</time>
      </trkpt>
      <trkpt lat="44.32771" lon="4.47313">
        <ele>391.842</ele>
        <time>2015-07-29T00:40:46Z</time>
      </trkpt>
      <trkpt lat="44.327" lon="4.47395">
        <ele>393.299</ele>
        <time>2015-07-29T00:41:06Z</time>
      </trkpt>
      <trkpt lat="44.32607" lon="4.47602">
        <ele>390.437</ele>
        <time>2015-07-29T00:41:26Z</time>
      </trkpt>
      <trkpt lat="44.32589" lon="4.47656">
        <ele>389.249</ele>
        <time>2015-07-29T00:41:46Z</time>
      </trkpt>
      <trkpt lat="44.32565" lon="4.4768">
        <ele>389.394</ele>
        <time>2015-07-29T00:42:06Z</time>
      </trkpt>
      <trkpt lat="44.32543" lon="4.47805">
        <ele>391.037</ele>
        <time>2015-07-29T00:42:26Z</time>
      </trkpt>
      <trkpt lat="44.32533" lon="4.47892">
        <ele>385.822</ele>
        <time>2015-07-29T00:42:46Z</time>
      </trkpt>
      <trkpt lat="44.3251" lon="4.4795">
        <ele>380.565</ele>
        <time>2015-07-29T00:43:06Z</time>
      </trkpt>
      <trkpt lat="44.32446" lon="4.48039">
        <ele>377.268</ele>
        <time>2015-07-29T00:43:26Z</time>
      </trkpt>
      <trkpt lat="44.32426" lon="4.48092">
        <ele>372.714</ele>
        <time>2015-07-29T00:43:46Z</time>
      </trkpt>
      <trkpt lat="44.32372" lon="4.48148">
        <ele>367.608</ele>
        <time>2015-07-29T00:44:06Z</time>
      </trkpt>
      <trkpt lat="44.32346" lon="4.48159">
        <ele>365.822</ele>
        <time>2015-07-29T00:44:26Z</time>
      </trkpt>
      <trkpt lat="44.32321" lon="4.48214">
        <ele>364.926</ele>
        <time>2015-07-29T00:44:46Z</time>
      </trkpt>
      <trkpt lat="44.32293" lon="4.48329">
        <ele>360.963</ele>
        <time>2015-07-29T00:45:06Z</time>
      </trkpt>
      <trkpt lat="44.32242" lon="4.48357">
        <ele>358.381</ele>
        <time>2015-07-29T00:45:26Z</time>
      </trkpt>
      <trkpt lat="44.32211" lon="4.48478">
        <ele>359.413</ele>
        <time>2015-07-29T00:45:46Z</time>
      </trkpt>
      <trkpt lat="44.32174" lon="4.48553">
        <ele>359.788</ele>
        <time>2015-07-29T00:46:06Z</time>
      </trkpt>
      <trkpt lat="44.32122" lon="4.48597">
        <ele>359.531</ele>
        <time>2015-07-29T00:46:26Z</time>
      </trkpt>
      <trkpt lat="44.32095" lon="4.48709">
        <ele>355.076</ele>
        <time>2015-07-29T00:46:46Z</time>
      </trkpt>
      <trkpt lat="44.32039" lon="4.48812">
        <ele>355.812</ele>
        <time>2015-07-29T00:47:06Z</time>
      </trkpt>
      <trkpt lat="44.32014" lon="4.48884">
        <ele>358.432</ele>
        <time>2015-07-29T00:47:26Z</time>
      </trkpt>
      <trkpt lat="44.32033" lon="4.48988">
        <ele>359.605</ele>
        <time>2015-07-29T00:47:46Z</time>
      </trkpt>
      <trkpt lat="44.31988" lon="4.49096">
        <ele>359.808</ele>
        <time>2015-07-29T00:48:06Z</time>
      </trkpt>
      <trkpt lat="44.3197" lon="4.4912">
        <ele>358.867</ele>
        <time>2015-07-29T00:48:26Z</time>
      </trkpt>
      <trkpt lat="44.31948" lon="4.49191">
        <ele>355.381</ele>
        <time>2015-07-29T00:48:46Z</time>
      </trkpt>
      <trkpt lat="44.31948" lon="4.49252">
        <ele>352.958</ele>
        <time>2015-07-29T00:49:06Z</time>
      </trkpt>
      <trkpt lat="44.31929" lon="4.49343">
        <ele>349.936</ele>
        <time>2015-07-29T00:49:26Z</time>
      </trkpt>
      <trkpt lat="44.31944" lon="4.49427">
        <ele>347.478</ele>
        <time>2015-07-29T00:49:46Z</time>
      </trkpt>
      <trkpt lat="44.3199" lon="4.49532">
        <ele>345.313</ele>
        <time>2015-07-29T00:50:06Z</time>
      </trkpt>
      <trkpt lat="44.31994" lon="4.49591">
        <ele>346.416</ele>
        <time>2015-07-29T00:50:26Z</time>
      </trkpt>
      <trkpt lat="44.31978" lon="4.49665">
        <ele>345.381</ele>
        <time>2015-07-29T00:50:46Z</time>
      </trkpt>
      <trkpt lat="44.31985" lon="4.49698">
        <ele>342.261</ele>
        <time>2015-07-29T00:51:06Z</time>
      </trkpt>
      <trkpt lat="44.31998" lon="4.49719">
        <ele>342.121</ele>
        <time>2015-07-29T00:51:26Z</time>
      </trkpt>
      <trkpt lat="44.32056" lon="4.49741">
        <ele>338.713</ele>
        <time>2015-07-29T00:51:46Z</time>
      </trkpt>
      <trkpt lat="44.32072" lon="4.49756">
        <ele>337.708</ele>
        <time>2015-07-29T00:52:06Z</time>
      </trkpt>
      <trkpt lat="44.321" lon="4.49814">
        <ele>333.592</ele>
        <time>2015-07-29T00:52:26Z</time>
      </trkpt>
      <trkpt lat="44.32122" lon="4.49841">
        <ele>334.576</ele>
        <time>2015-07-29T00:52:46Z</time>
      </trkpt>
      <trkpt lat="44.32099" lon="4.4989">
        <ele>333.853</ele>
        <time>2015-07-29T00:53:06Z</time>
      </trkpt>
      <trkpt lat="44.32049" lon="4.49922">
        <ele>332.631</ele>
        <time>2015-07-29T00:53:26Z</time>
      </trkpt>
      <trkpt lat="44.31997" lon="4.49926">
        <ele>328.863</ele>
        <time>2015-07-29T00:53:46Z</time>
      </trkpt>
      <trkpt lat="44.31903" lon="4.49956">
        <ele>325.578</ele>
        <time>2015-07-29T00:54:06Z</time>
      </trkpt>
      <trkpt lat="44.31863" lon="4.49945">
        <ele>321.291</ele>
        <time>2015-07-29T00:54:26Z</time>
      </trkpt>
      <trkpt lat="44.31785" lon="4.49944">
        <ele>319.266</ele>
        <time>2015-07-29T00:54:46Z</time>
      </trkpt>
      <trkpt lat="44.31719" lon="4.49976">
        <ele>319.134</ele>
        <time>2015-07-29T00:55:06Z</time>
      </trkpt>
      <trkpt lat="44.31697" lon="4.49999">
        <ele>318.355</ele>
        <time>2015-07-29T00:55:26Z</time>
      </trkpt>
      <trkpt lat="44.31694" lon="4.50082">
        <ele>322.81</ele>
        <time>2015-07-29T00:55:46Z</time>
      </trkpt>
      <trkpt lat="44.31684" lon="4.50079">
        <ele>321.808</ele>
        <time>2015-07-29T00:56:06Z</time>
      </trkpt>
      <trkpt lat="44.31645" lon="4.50045">
        <ele>314.859</ele>
        <time>2015-07-29T00:56:26Z</time>
      </trkpt>
      <trkpt lat="44.31616" lon="4.50044">
        <ele>313.233</ele>
        <time>2015-07-29T00:56:46Z</time>
      </trkpt>
      <trkpt lat="44.31583" lon="4.50068">
        <ele>313.69</ele>
        <time>2015-07-29T00:57:06Z</time>
      </trkpt>
      <trkpt lat="44.31531" lon="4.50088">
        <ele>314.898</ele>
        <time>2015-07-29T00:57:26Z</time>
      </trkpt>
      <trkpt lat="44.31469" lon="4.50087">
        <ele>311.41</ele>
        <time>2015-07-29T00:57:46Z</time>
      </trkpt>
      <trkpt lat="44.31428" lon="4.50119">
        <ele>315.275</ele>
        <time>2015-07-29T00:58:06Z</time>
      </trkpt>
      <trkpt lat="44.31411" lon="4.5017">
        <ele>316.788</ele>
        <time>2015-07-29T00:58:26Z</time>
      </trkpt>
      <trkpt lat="44.31376" lon="4.50224">
        <ele>315.053</ele>
        <time>2015-07-29T00:58:46Z</time>
      </trkpt>
      <trkpt lat="44.31383" lon="4.50348">
        <ele>312.878</ele>
        <time>2015-07-29T00:59:06Z</time>
      </trkpt>
      <trkpt lat="44.31349" lon="4.50392">
        <ele>310.533</ele>
        <time>2015-07-29T00:59:26Z</time>
      </trkpt>
      <trkpt lat="44.31336" lon="4.50438">
        <ele>312.326</ele>
        <time>2015-07-29T00:59:46Z</time>
      </trkpt>
      <trkpt lat="44.31347" lon="4.50513">
        <ele>315.508</ele>
        <time>2015-07-29T01:00:06Z</time>
      </trkpt>
      <trkpt lat="44.31313" lon="4.5055">
        <ele>313.963</ele>
        <time>2015-07-29T01:00:26Z</time>
      </trkpt>
      <trkpt lat="44.31286" lon="4.50671">
        <ele>313.427</ele>
        <time>2015-07-29T01:00:46Z</time>
      </trkpt>
      <trkpt lat="44.31289" lon="4.50837">
        <ele>309.494</ele>
        <time>2015-07-29T01:01:06Z</time>
      </trkpt>
      <trkpt lat="44.31225" lon="4.50986">
        <ele>303.642</ele>
        <time>2015-07-29T01:01:26Z</time>
      </trkpt>
      <trkpt lat="44.31212" lon="4.51045">
        <ele>302.494</ele>
        <time>2015-07-29T01:01:46Z</time>
      </trkpt>
      <trkpt lat="44.31164" lon="4.51069">
        <ele>299.959</ele>
        <time>2015-07-29T01:02:06Z</time>
      </trkpt>
      <trkpt lat="44.3113" lon="4.51113">
        <ele>299.452</ele>
        <time>2015-07-29T01:02:26Z</time>
      </trkpt>
      <trkpt lat="44.31101" lon="4.51137">
        <ele>297.687</ele>
        <time>2015-07-29T01:02:46Z</time>
      </trkpt>
      <trkpt lat="44.31087" lon="4.51175">
        <ele>296.931</ele>
        <time>2015-07-29T01:03:06Z</time>
      </trkpt>
      <trkpt lat="44.31061" lon="4.51209">
        <ele>294.561</ele>
        <time>2015-07-29T01:03:26Z</time>
      </trkpt>
      <trkpt lat="44.31041" lon="4.51271">
        <ele>294.007</ele>
        <time>2015-07-29T01:03:46Z</time>
      </trkpt>
      <trkpt lat="44.31051" lon="4.51316">
        <ele>293.008</ele>
        <time>2015-07-29T01:04:06Z</time>
      </trkpt>
      <trkpt lat="44.31098" lon="4.51356">
        <ele>291.039</ele>
        <time>2015-07-29T01:04:26Z</time>
      </trkpt>
      <trkpt lat="44.31096" lon="4.51437">
        <ele>290.263</ele>
        <time>2015-07-29T01:04:46Z</time>
      </trkpt>
      <trkpt lat="44.31111" lon="4.51512">
        <ele>292.47</ele>
        <time>2015-07-29T01:05:06Z</time>
      </trkpt>
      <trkpt lat="44.31244" lon="4.51665">
        <ele>295.918</ele>
        <time>2015-07-29T01:05:26Z</time>
      </trkpt>
      <trkpt lat="44.31242" lon="4.51858">
        <ele>297.72</ele>
        <time>2015-07-29T01:05:46Z</time>
      </trkpt>
      <trkpt lat="44.31249" lon="4.51926">
        <ele>295.085</ele>
        <time>2015-07-29T01:06:06Z</time>
      </trkpt>
      <trkpt lat="44.31278" lon="4.52006">
        <ele>294.678</ele>
        <time>2015-07-29T01:06:26Z</time>
      </trkpt>
      <trkpt lat="44.31319" lon="4.52066">
        <ele>291.513</ele>
        <time>2015-07-29T01:06:46Z</time>
      </trkpt>
      <trkpt lat="44.31389" lon="4.52144">
        <ele>290.084</ele>
        <time>2015-07-29T01:07:06Z</time>
      </trkpt>
      <trkpt lat="44.31398" lon="4.52179">
        <ele>289.907</ele>
        <time>2015-07-29T01:07:26Z</time>
      </trkpt>
      <trkpt lat="44.31372" lon="4.52286">
        <ele>289.717</ele>
        <time>2015-07-29T01:07:46Z</time>
      </trkpt>
      <trkpt lat="44.31412" lon="4.52373">
        <ele>286.408</ele>
        <time>2015-07-29T01:08:06Z</time>
      </trkpt>
      <trkpt lat="44.3143" lon="4.52438">
        <ele>286.564</ele>
        <time>2015-07-29T01:08:26Z</time>
      </trkpt>
      <trkpt lat="44.31506" lon="4.52645">
        <ele>283.228</ele>
        <time>2015-07-29T01:08:46Z</time>
      </trkpt>
      <trkpt lat="44.31515" lon="4.52762">
        <ele>281.165</ele>
        <time>2015-07-29T01:09:06Z</time>
      </trkpt>
      <trkpt lat="44.31532" lon="4.52882">
        <ele>274.453</ele>
        <time>2015-07-29T01:09:26Z</time>
      </trkpt>
      <trkpt lat="44.31522" lon="4.5294">
        <ele>273.665</ele>
        <time>2015-07-29T01:09:46Z</time>
      </trkpt>
      <trkpt lat="44.31478" lon="4.53061">
        <ele>269.76</ele>
        <time>2015-07-29T01:10:06Z</time>
      </trkpt>
      <trkpt lat="44.31491" lon="4.53061">
        <ele>270.363</ele>
        <time>2015-07-29T01:10:26Z</time>
      </trkpt>
      <trkpt lat="44.31478" lon="4.53095">
        <ele>266.298</ele>
        <time>2015-07-29T01:10:46Z</time>
      </trkpt>
      <trkpt lat="44.31458" lon="4.53127">
        <ele>262.989</ele>
        <time>2015-07-29T01:11:06Z</time>
      </trkpt>
      <trkpt lat="44.31441" lon="4.53174">
        <ele>261.606</ele>
        <time>2015-07-29T01:11:26Z</time>
      </trkpt>
      <trkpt lat="44.31432" lon="4.53219">
        <ele>259.226</ele>
        <time>2015-07-29T01:11:46Z</time>
      </trkpt>
      <trkpt lat="44.31393" lon="4.5333">
        <ele>257.108</ele>
        <time>2015-07-29T01:12:06Z</time>
      </trkpt>
      <trkpt lat="44.31384" lon="4.53464">
        <ele>255.394</ele>
        <time>2015-07-29T01:12:26Z</time>
      </trkpt>
      <trkpt lat="44.31365" lon="4.53502">
        <ele>250.488</ele>
        <time>2015-07-29T01:12:46Z</time>
      </trkpt>
      <trkpt lat="44.31352" lon="4.53521">
        <ele>248.155</ele>
        <time>2015-07-29T01:13:06Z</time>
      </trkpt>
      <trkpt lat="44.31352" lon="4.53564">
        <ele>246.863</ele>
        <time>2015-07-29T01:13:26Z</time>
      </trkpt>
      <trkpt lat="44.31342" lon="4.53624">
        <ele>242.415</ele>
        <time>2015-07-29T01:13:46Z</time>
      </trkpt>
      <trkpt lat="44.31348" lon="4.5368">
        <ele>239.85</ele>
        <time>2015-07-29T01:14:06Z</time>
      </trkpt>
      <trkpt lat="44.31392" lon="4.53782">
        <ele>241.273</ele>
        <time>2015-07-29T01:14:26Z</time>
      </trkpt>
      <trkpt lat="44.31447" lon="4.53844">
        <ele>242.498</ele>
        <time>2015-07-29T01:14:46Z</time>
      </trkpt>
      <trkpt lat="44.31484" lon="4.5387">
        <ele>244.176</ele>
        <time>2015-07-29T01:15:06Z</time>
      </trkpt>
      <trkpt lat="44.31513" lon="4.53929">
        <ele>248.29</ele>
        <time>2015-07-29T01:15:26Z</time>
      </trkpt>
      <trkpt lat="44.31519" lon="4.53955">
        <ele>248.619</ele>
        <time>2015-07-29T01:15:46Z</time>
      </trkpt>
      <trkpt lat="44.31491" lon="4.54129">
        <ele>254.708</ele>
        <time>2015-07-29T01:16:06Z</time>
      </trkpt>
      <trkpt lat="44.31493" lon="4.54215">
        <ele>253.813</ele>
        <time>2015-07-29T01:16:26Z</time>
      </trkpt>
      <trkpt lat="44.31433" lon="4.54245">
        <ele>244.117</ele>
        <time>2015-07-29T01:16:46Z</time>
      </trkpt>
      <trkpt lat="44.31377" lon="4.54317">
        <ele>241.374</ele>
        <time>2015-07-29T01:17:06Z</time>
      </trkpt>
      <trkpt lat="44.31342" lon="4.54361">
        <ele>245.322</ele>
        <time>2015-07-29T01:17:26Z</time>
      </trkpt>
      <trkpt lat="44.31293" lon="4.54387">
        <ele>246.484</ele>
        <time>2015-07-29T01:17:46Z</time>
      </trkpt>
      <trkpt lat="44.31243" lon="4.54472">
        <ele>240.559</ele>
        <time>2015-07-29T01:18:06Z</time>
      </trkpt>
      <trkpt lat="44.31196" lon="4.54521">
        <ele>236.522</ele>
        <time>2015-07-29T01:18:26Z</time>
      </trkpt>
      <trkpt lat="44.31147" lon="4.54595">
        <ele>223.837</ele>
        <time>2015-07-29T01:18:46Z</time>
      </trkpt>
      <trkpt lat="44.31068" lon="4.54661">
        <ele>209.841</ele>
        <time>2015-07-29T01:19:06Z</time>
      </trkpt>
      <trkpt lat="44.31048" lon="4.54702">
        <ele>202.081</ele>
        <time>2015-07-29T01:19:26Z</time>
      </trkpt>
      <trkpt lat="44.31041" lon="4.54729">
        <ele>199.109</ele>
        <time>2015-07-29T01:19:46Z</time>
      </trkpt>
      <trkpt lat="44.31024" lon="4.54758">
        <ele>197.508</ele>
        <time>2015-07-29T01:20:06Z</time>
      </trkpt>
      <trkpt lat="44.31001" lon="4.54849">
        <ele>187.66</ele>
        <time>2015-07-29T01:20:26Z</time>
      </trkpt>
      <trkpt lat="44.30985" lon="4.54884">
        <ele>184.314</ele>
        <time>2015-07-29T01:20:46Z</time>
      </trkpt>
      <trkpt lat="44.30946" lon="4.54939">
        <ele>177.071</ele>
        <time>2015-07-29T01:21:06Z</time>
      </trkpt>
      <trkpt lat="44.30907" lon="4.54972">
        <ele>171.729</ele>
        <time>2015-07-29T01:21:26Z</time>
      </trkpt>
      <trkpt lat="44.30872" lon="4.54991">
        <ele>166.541</ele>
        <time>2015-07-29T01:23:26Z</time>
      </trkpt>
      <trkpt lat="44.30849" lon="4.55016">
        <ele>162.566</ele>
        <time>2015-07-29T01:23:46Z</time>
      </trkpt>
      <trkpt lat="44.30852" lon="4.55083">
        <ele>160.099</ele>
        <time>2015-07-29T01:24:06Z</time>
      </trkpt>
      <trkpt lat="44.30836" lon="4.55086">
        <ele>159.954</ele>
        <time>2015-07-29T01:24:26Z</time>
      </trkpt>
      <trkpt lat="44.30842" lon="4.55125">
        <ele>157.761</ele>
        <time>2015-07-29T01:24:46Z</time>
      </trkpt>
      <trkpt lat="44.30834" lon="4.55175">
        <ele>151.121</ele>
        <time>2015-07-29T01:25:06Z</time>
      </trkpt>
      <trkpt lat="44.30763" lon="4.55257">
        <ele>140.813</ele>
        <time>2015-07-29T01:25:26Z</time>
      </trkpt>
      <trkpt lat="44.30735" lon="4.55267">
        <ele>142.608</ele>
        <time>2015-07-29T01:25:46Z</time>
      </trkpt>
      <trkpt lat="44.30723" lon="4.55285">
        <ele>139.232</ele>
        <time>2015-07-29T01:26:06Z</time>
      </trkpt>
      <trkpt lat="44.30693" lon="4.55318">
        <ele>133.076</ele>
        <time>2015-07-29T01:26:26Z</time>
      </trkpt>
      <trkpt lat="44.30687" lon="4.55331">
        <ele>129.963</ele>
        <time>2015-07-29T01:26:46Z</time>
      </trkpt>
      <trkpt lat="44.30679" lon="4.55331">
        <ele>131.371</ele>
        <time>2015-07-29T01:27:06Z</time>
      </trkpt>
      <trkpt lat="44.30649" lon="4.55358">
        <ele>124.023</ele>
        <time>2015-07-29T01:27:26Z</time>
      </trkpt>
      <trkpt lat="44.30637" lon="4.55391">
        <ele>114.468</ele>
        <time>2015-07-29T01:27:46Z</time>
      </trkpt>
      <trkpt lat="44.30621" lon="4.55391">
        <ele>116.571</ele>
        <time>2015-07-29T01:28:06Z</time>
      </trkpt>
      <trkpt lat="44.30613" lon="4.55421">
        <ele>110.796</ele>
        <time>2015-07-29T01:28:26Z</time>
      </trkpt>
      <trkpt lat="44.30595" lon="4.55416">
        <ele>113.753</ele>
        <time>2015-07-29T01:28:46Z</time>
      </trkpt>
      <trkpt lat="44.30575" lon="4.55422">
        <ele>111.104</ele>
        <time>2015-07-29T01:29:06Z</time>
      </trkpt>
      <trkpt lat="44.30561" lon="4.55449">
        <ele>104.414</ele>
        <time>2015-07-29T01:29:26Z</time>
      </trkpt>
      <trkpt lat="44.30525" lon="4.55466">
        <ele>98.608</ele>
        <time>2015-07-29T01:29:46Z</time>
      </trkpt>
      <trkpt lat="44.30518" lon="4.55482">
        <ele>95.341</ele>
        <time>2015-07-29T01:30:06Z</time>
      </trkpt>
      <trkpt lat="44.30473" lon="4.55511">
        <ele>93.215</ele>
        <time>2015-07-29T01:30:26Z</time>
      </trkpt>
      <trkpt lat="44.30462" lon="4.55535">
        <ele>92.092</ele>
        <time>2015-07-29T01:30:46Z</time>
      </trkpt>
      <trkpt lat="44.30428" lon="4.55524">
        <ele>95.16</ele>
        <time>2015-07-29T01:31:06Z</time>
      </trkpt>
      <trkpt lat="44.30415" lon="4.55573">
        <ele>92.932</ele>
        <time>2015-07-29T01:31:26Z</time>
      </trkpt>
      <trkpt lat="44.30392" lon="4.55573">
        <ele>94.267</ele>
        <time>2015-07-29T01:31:46Z</time>
      </trkpt>
      <trkpt lat="44.30402" lon="4.55615">
        <ele>87.69</ele>
        <time>2015-07-29T01:32:06Z</time>
      </trkpt>
      <trkpt lat="44.3035" lon="4.5566">
        <ele>90.165</ele>
        <time>2015-07-29T01:32:26Z</time>
      </trkpt>
      <trkpt lat="44.30303" lon="4.5568">
        <ele>90.295</ele>
        <time>2015-07-29T01:32:46Z</time>
      </trkpt>
      <trkpt lat="44.30295" lon="4.55656">
        <ele>93.649</ele>
        <time>2015-07-29T01:33:46Z</time>
      </trkpt>
      <trkpt lat="44.30276" lon="4.55678">
        <ele>91.323</ele>
        <time>2015-07-29T01:34:06Z</time>
      </trkpt>
      <trkpt lat="44.30269" lon="4.55669">
        <ele>92.408</ele>
        <time>2015-07-29T01:34:26Z</time>
      </trkpt>
      <trkpt lat="44.30258" lon="4.55676">
        <ele>91.475</ele>
        <time>2015-07-29T01:34:46Z</time>
      </trkpt>
      <trkpt lat="44.30228" lon="4.55719">
        <ele>86.289</ele>
        <time>2015-07-29T01:35:06Z</time>
      </trkpt>
      <trkpt lat="44.30225" lon="4.55748">
        <ele>82.316</ele>
        <time>2015-07-29T01:35:26Z</time>
      </trkpt>
      <trkpt lat="44.30203" lon="4.55788">
        <ele>83.634</ele>
        <time>2015-07-29T01:35:46Z</time>
      </trkpt>
      <trkpt lat="44.30191" lon="4.55796">
        <ele>87.086</ele>
        <time>2015-07-29T01:36:06Z</time>
      </trkpt>
      <trkpt lat="44.30141" lon="4.55881">
        <ele>95.731</ele>
        <time>2015-07-29T01:36:26Z</time>
      </trkpt>
      <trkpt lat="44.30037" lon="4.56155">
        <ele>81.614</ele>
        <time>2015-07-29T01:36:46Z</time>
      </trkpt>
      <trkpt lat="44.30019" lon="4.56316">
        <ele>74.539</ele>
        <time>2015-07-29T01:37:06Z</time>
      </trkpt>
      <trkpt lat="44.29951" lon="4.56572">
        <ele>58.453</ele>
        <time>2015-07-29T01:37:26Z</time>
      </trkpt>
      <trkpt lat="44.29931" lon="4.56625">
        <ele>59.504</ele>
        <time>2015-07-29T01:37:46Z</time>
      </trkpt>
      <trkpt lat="44.29911" lon="4.56648">
        <ele>57.614</ele>
        <time>2015-07-29T01:38:06Z</time>
      </trkpt>
      <trkpt lat="44.30036" lon="4.5671">
        <ele>50.2</ele>
      </trkpt>
      <trkpt lat="44.30038" lon="4.56712">
        <ele>51.008</ele>
        <time>2021-01-12T04:13:38Z</time>
      </trkpt>
      <trkpt lat="44.30069" lon="4.56716">
        <ele>53.12</ele>
        <time>2021-01-12T04:13:18Z</time>
      </trkpt>
      <trkpt lat="44.30102" lon="4.56734">
        <ele>55.1</ele>
        <time>2021-01-12T04:12:58Z</time>
      </trkpt>
      <trkpt lat="44.30114" lon="4.56709">
        <ele>54.729</ele>
        <time>2021-01-12T04:12:38Z</time>
      </trkpt>
      <trkpt lat="44.30138" lon="4.56643">
        <ele>54.154</ele>
        <time>2021-01-12T04:12:18Z</time>
      </trkpt>
      <trkpt lat="44.30148" lon="4.56625">
        <ele>53.798</ele>
        <time>2021-01-12T04:11:58Z</time>
      </trkpt>
      <trkpt lat="44.30157" lon="4.56617">
        <ele>53.711</ele>
        <time>2021-01-12T04:11:38Z</time>
      </trkpt>
      <trkpt lat="44.30176" lon="4.56618">
        <ele>54.681</ele>
        <time>2021-01-12T04:11:18Z</time>
      </trkpt>
      <trkpt lat="44.30205" lon="4.56629">
        <ele>56.024</ele>
        <time>2021-01-12T04:10:58Z</time>
      </trkpt>
      <trkpt lat="44.30223" lon="4.56655">
        <ele>57.056</ele>
        <time>2021-01-12T04:10:38Z</time>
      </trkpt>
      <trkpt lat="44.30226" lon="4.56675">
        <ele>57.572</ele>
        <time>2021-01-12T04:10:18Z</time>
      </trkpt>
      <trkpt lat="44.3023" lon="4.56689">
        <ele>58.145</ele>
        <time>2021-01-12T04:09:58Z</time>
      </trkpt>
      <trkpt lat="44.30263" lon="4.56715">
        <ele>58.908</ele>
        <time>2021-01-12T04:09:38Z</time>
      </trkpt>
      <trkpt lat="44.30284" lon="4.56749">
        <ele>59.92</ele>
        <time>2021-01-12T04:09:18Z</time>
      </trkpt>
      <trkpt lat="44.30299" lon="4.56751">
        <ele>60.073</ele>
        <time>2021-01-12T04:08:58Z</time>
      </trkpt>
      <trkpt lat="44.30323" lon="4.56744">
        <ele>60.692</ele>
        <time>2021-01-12T04:08:38Z</time>
      </trkpt>
      <trkpt lat="44.30341" lon="4.56736">
        <ele>61.569</ele>
        <time>2021-01-12T04:08:18Z</time>
      </trkpt>
      <trkpt lat="44.30357" lon="4.56725">
        <ele>63.413</ele>
        <time>2021-01-12T04:07:58Z</time>
      </trkpt>
      <trkpt lat="44.30371" lon="4.5671">
        <ele>64.196</ele>
        <time>2021-01-12T04:07:38Z</time>
      </trkpt>
      <trkpt lat="44.30381" lon="4.56692">
        <ele>64.316</ele>
        <time>2021-01-12T04:07:18Z</time>
      </trkpt>
      <trkpt lat="44.30402" lon="4.56702">
        <ele>65.669</ele>
        <time>2021-01-12T04:06:58Z</time>
      </trkpt>
      <trkpt lat="44.30426" lon="4.56711">
        <ele>67.481</ele>
        <time>2021-01-12T04:06:38Z</time>
      </trkpt>
      <trkpt lat="44.30459" lon="4.56709">
        <ele>69.327</ele>
        <time>2021-01-12T04:06:18Z</time>
      </trkpt>
      <trkpt lat="44.30487" lon="4.56711">
        <ele>70.84</ele>
        <time>2021-01-12T04:05:58Z</time>
      </trkpt>
      <trkpt lat="44.30537" lon="4.56719">
        <ele>77.008</ele>
        <time>2021-01-12T04:05:38Z</time>
      </trkpt>
      <trkpt lat="44.30589" lon="4.56734">
        <ele>83.817</ele>
        <time>2021-01-12T04:05:18Z</time>
      </trkpt>
      <trkpt lat="44.30588" lon="4.56744">
        <ele>83.661</ele>
        <time>2021-01-12T04:04:58Z</time>
      </trkpt>
      <trkpt lat="44.30595" lon="4.5676">
        <ele>83.448</ele>
        <time>2021-01-12T04:04:38Z</time>
      </trkpt>
      <trkpt lat="44.30606" lon="4.56772">
        <ele>83.239</ele>
        <time>2021-01-12T04:04:18Z</time>
      </trkpt>
      <trkpt lat="44.30618" lon="4.56773">
        <ele>84.743</ele>
        <time>2021-01-12T04:03:58Z</time>
      </trkpt>
      <trkpt lat="44.30636" lon="4.5678">
        <ele>87.336</ele>
        <time>2021-01-12T04:03:38Z</time>
      </trkpt>
      <trkpt lat="44.30641" lon="4.56796">
        <ele>87.786</ele>
        <time>2021-01-12T04:03:18Z</time>
      </trkpt>
      <trkpt lat="44.30656" lon="4.56809">
        <ele>88.949</ele>
        <time>2021-01-12T04:02:58Z</time>
      </trkpt>
      <trkpt lat="44.3067" lon="4.5683">
        <ele>91.131</ele>
        <time>2021-01-12T04:02:38Z</time>
      </trkpt>
      <trkpt lat="44.30669" lon="4.56841">
        <ele>92.057</ele>
        <time>2021-01-12T04:02:18Z</time>
      </trkpt>
      <trkpt lat="44.3065" lon="4.56861">
        <ele>91.71</ele>
        <time>2021-01-12T04:01:58Z</time>
      </trkpt>
      <trkpt lat="44.30623" lon="4.56886">
        <ele>96.208</ele>
        <time>2021-01-12T04:01:38Z</time>
      </trkpt>
      <trkpt lat="44.30613" lon="4.569">
        <ele>100.514</ele>
        <time>2021-01-12T04:01:18Z</time>
      </trkpt>
      <trkpt lat="44.30601" lon="4.56944">
        <ele>110.122</ele>
        <time>2021-01-12T04:00:58Z</time>
      </trkpt>
      <trkpt lat="44.30594" lon="4.57019">
        <ele>112.742</ele>
        <time>2021-01-12T04:00:38Z</time>
      </trkpt>
      <trkpt lat="44.30597" lon="4.5705">
        <ele>112.642</ele>
        <time>2021-01-12T04:00:18Z</time>
      </trkpt>
      <trkpt lat="44.306" lon="4.57099">
        <ele>112.536</ele>
        <time>2021-01-12T03:59:58Z</time>
      </trkpt>
      <trkpt lat="44.30583" lon="4.57097">
        <ele>110.329</ele>
        <time>2021-01-12T03:59:38Z</time>
      </trkpt>
      <trkpt lat="44.30588" lon="4.5712">
        <ele>110.489</ele>
        <time>2021-01-12T03:59:18Z</time>
      </trkpt>
      <trkpt lat="44.30601" lon="4.57169">
        <ele>111.572</ele>
        <time>2021-01-12T03:58:58Z</time>
      </trkpt>
      <trkpt lat="44.30602" lon="4.57194">
        <ele>111.714</ele>
        <time>2021-01-12T03:58:38Z</time>
      </trkpt>
      <trkpt lat="44.30606" lon="4.57254">
        <ele>112.45</ele>
        <time>2021-01-12T03:58:18Z</time>
      </trkpt>
    </trkseg>
  </trk>
</gpx>